Time;durP1;ratioP1;P1;durP2;ratioP2;P2;SDS_P1;SDS_P2;PMS_P1;PMS_P2;Temp;Humidity;BMP_temperature;BMP_pressure;BME280_temperature;BME280_humidity;BME280_pressure;Samples;Min_cycle;Max_cycle;Signal;HPM_P1;HPM_P2
2022/10/08 00:01:07;;;;;;;8.23;2.38;;;11.20;99.90;;;;;;5030726;28;20021;-48
2022/10/08 00:03:39;;;;;;;8.02;2.95;;;11.20;99.90;;;;;;5031048;28;20045;-46
2022/10/08 00:06:06;;;;;;;8.02;2.65;;;11.20;99.90;;;;;;5029577;28;20034;-47
2022/10/08 00:08:36;;;;;;;7.60;2.13;;;11.10;99.90;;;;;;5029991;28;20769;-50
2022/10/08 00:11:12;;;;;;;8.80;3.00;;;11.10;99.90;;;;;;5030010;28;20036;-46
2022/10/08 00:13:39;;;;;;;10.02;2.40;;;11.10;99.90;;;;;;5030299;28;20104;-46
2022/10/08 00:16:14;;;;;;;11.45;3.10;;;11.00;99.90;;;;;;5030235;28;20022;-49
2022/10/08 00:18:40;;;;;;;11.48;2.88;;;11.00;99.90;;;;;;5030105;28;20036;-50
2022/10/08 00:21:08;;;;;;;16.42;3.22;;;11.00;99.90;;;;;;5030359;28;20025;-46
2022/10/08 00:23:34;;;;;;;7.75;2.22;;;11.00;99.90;;;;;;5031737;28;20053;-48
2022/10/08 00:26:06;;;;;;;9.13;2.60;;;11.00;99.90;;;;;;5032005;28;20084;-54
2022/10/08 00:28:35;;;;;;;10.27;2.17;;;11.00;99.90;;;;;;5032143;28;20029;-47
2022/10/08 00:31:25;;;;;;;7.18;2.30;;;11.00;99.90;;;;;;5031551;28;20112;-46
2022/10/08 00:33:53;;;;;;;;;;;11.00;99.90;;;;;;5032035;28;20506;-48
2022/10/08 00:36:20;;;;;;;9.15;2.30;;;11.00;99.90;;;;;;5031749;28;19955;-48
2022/10/08 00:38:46;;;;;;;12.02;2.65;;;11.00;99.90;;;;;;5031742;28;20496;-48
2022/10/08 00:41:20;;;;;;;15.63;2.70;;;11.00;99.90;;;;;;5031665;28;20114;-53
2022/10/08 00:43:47;;;;;;;10.07;2.20;;;11.00;99.90;;;;;;5031684;28;20037;-48
2022/10/08 00:46:27;;;;;;;9.18;2.03;;;11.00;99.90;;;;;;5031524;28;20061;-47
2022/10/08 00:49:13;;;;;;;12.35;2.13;;;11.00;99.90;;;;;;5031479;28;20026;-46
2022/10/08 00:51:44;;;;;;;12.52;2.67;;;10.90;99.90;;;;;;5031559;28;20018;-49
2022/10/08 00:54:11;;;;;;;9.93;2.40;;;11.00;99.90;;;;;;5031359;28;20060;-47
2022/10/08 00:56:38;;;;;;;8.07;2.33;;;10.90;99.90;;;;;;5031511;28;20112;-48
2022/10/08 00:59:06;;;;;;;8.43;2.13;;;10.90;99.90;;;;;;5030991;28;20476;-46
2022/10/08 01:01:32;;;;;;;10.93;2.53;;;10.80;99.90;;;;;;5030516;28;20021;-50
2022/10/08 01:04:03;;;;;;;13.13;2.20;;;10.80;99.90;;;;;;5030957;28;20049;-51
2022/10/08 01:06:37;;;;;;;11.98;2.78;;;10.80;99.90;;;;;;5031073;28;20034;-49
2022/10/08 01:09:06;;;;;;;11.32;2.33;;;10.70;99.90;;;;;;5031409;28;20030;-48
2022/10/08 01:11:40;;;;;;;11.95;2.10;;;10.80;99.90;;;;;;5031064;28;20037;-49
2022/10/08 01:14:32;;;;;;;9.95;2.20;;;10.70;99.90;;;;;;5031419;28;20099;-46
2022/10/08 01:17:16;;;;;;;9.88;2.10;;;10.70;99.90;;;;;;5026480;28;20030;-48
2022/10/08 01:19:54;;;;;;;9.98;2.63;;;10.70;99.90;;;;;;5031027;28;20017;-48
2022/10/08 01:22:42;;;;;;;9.60;2.40;;;10.60;99.90;;;;;;5031396;28;20079;-46
2022/10/08 01:25:38;;;;;;;8.30;2.33;;;10.60;99.90;;;;;;5031085;28;20048;-48
2022/10/08 01:28:11;;;;;;;9.13;2.10;;;10.60;99.90;;;;;;5031060;28;20044;-54
2022/10/08 01:30:42;;;;;;;7.93;1.92;;;10.60;99.90;;;;;;5030575;28;20372;-48
2022/10/08 01:33:18;;;;;;;7.20;1.80;;;10.50;99.90;;;;;;5031003;28;20121;-47
2022/10/08 01:35:49;;;;;;;7.45;1.98;;;10.50;99.90;;;;;;5030900;28;20068;-48
2022/10/08 01:38:18;;;;;;;8.73;1.98;;;10.50;99.90;;;;;;5031074;28;20025;-45
2022/10/08 01:40:46;;;;;;;9.30;2.60;;;10.40;99.90;;;;;;5030897;28;20040;-45
2022/10/08 01:43:15;;;;;;;14.27;2.28;;;10.40;99.90;;;;;;5031210;28;20026;-45
2022/10/08 01:45:48;;;;;;;12.20;2.47;;;10.40;99.90;;;;;;5030930;28;20021;-47
2022/10/08 01:48:21;;;;;;;12.07;2.08;;;10.40;99.90;;;;;;5030786;28;20029;-49
2022/10/08 01:51:02;;;;;;;11.23;2.28;;;10.40;99.90;;;;;;5030747;28;20025;-54
2022/10/08 01:53:32;;;;;;;13.30;2.78;;;10.40;99.90;;;;;;5030527;28;20039;-46
2022/10/08 01:56:01;;;;;;;7.85;1.98;;;10.40;99.90;;;;;;5030682;28;20025;-46
2022/10/08 01:58:34;;;;;;;5.40;1.80;;;10.30;99.90;;;;;;5030763;28;20389;-55
2022/10/08 02:01:07;;;;;;;10.23;2.05;;;10.30;99.90;;;;;;5030014;28;20025;-56
2022/10/08 02:03:33;;;;;;;7.25;1.67;;;10.20;99.90;;;;;;5030124;28;20489;-52
2022/10/08 02:06:03;;;;;;;9.95;2.17;;;10.20;99.90;;;;;;5030485;28;20108;-50
2022/10/08 02:08:28;;;;;;;;;;;10.20;99.90;;;;;;5031010;28;20048;-56
2022/10/08 02:10:54;;;;;;;8.20;1.80;;;10.10;99.90;;;;;;5062986;28;19944;-46
2022/10/08 02:13:20;;;;;;;10.77;2.78;;;10.20;99.90;;;;;;5034357;28;20021;-46
2022/10/08 02:15:51;;;;;;;10.35;2.17;;;10.20;99.90;;;;;;5034649;28;20033;-46
2022/10/08 02:18:21;;;;;;;8.00;2.05;;;10.20;99.90;;;;;;5034158;28;20038;-46
2022/10/08 02:21:03;;;;;;;6.80;1.98;;;10.10;99.90;;;;;;5032485;28;20057;-46
2022/10/08 02:23:56;;;;;;;9.45;2.45;;;10.10;99.90;;;;;;5034391;28;20080;-49
2022/10/08 02:26:37;;;;;;;10.70;2.13;;;10.10;99.90;;;;;;5029763;28;20041;-46
2022/10/08 02:29:15;;;;;;;7.38;1.83;;;10.10;99.90;;;;;;5033976;28;20017;-46
2022/10/08 02:31:48;;;;;;;6.28;2.38;;;10.10;99.90;;;;;;5033936;28;20064;-49
2022/10/08 02:34:20;;;;;;;8.13;2.17;;;10.00;99.90;;;;;;5034047;28;20013;-49
2022/10/08 02:36:52;;;;;;;6.22;1.58;;;10.00;99.90;;;;;;5033891;28;20017;-47
2022/10/08 02:39:19;;;;;;;9.43;2.75;;;9.90;99.90;;;;;;5032633;28;20025;-49
2022/10/08 02:41:49;;;;;;;9.15;1.95;;;9.90;99.90;;;;;;5034125;28;20035;-51
2022/10/08 02:44:27;;;;;;;9.32;1.70;;;9.90;99.90;;;;;;5033835;28;20029;-49
2022/10/08 02:46:57;;;;;;;10.90;2.15;;;9.90;99.90;;;;;;5033744;28;20112;-49
2022/10/08 02:49:30;;;;;;;7.97;2.15;;;9.90;99.90;;;;;;5033744;28;20037;-46
2022/10/08 02:52:00;;;;;;;11.95;2.35;;;9.80;99.90;;;;;;5033961;28;20026;-51
2022/10/08 02:54:30;;;;;;;6.43;1.95;;;9.80;99.90;;;;;;5033948;28;20033;-46
2022/10/08 02:57:02;;;;;;;7.65;2.08;;;9.80;99.90;;;;;;5033952;28;20021;-51
2022/10/08 02:59:28;;;;;;;7.22;2.03;;;9.70;99.90;;;;;;5033495;28;20155;-50
2022/10/08 03:01:59;;;;;;;9.98;2.03;;;9.70;99.90;;;;;;5033528;28;20075;-48
2022/10/08 03:04:31;;;;;;;14.13;2.45;;;9.60;99.90;;;;;;5033435;28;20562;-46
2022/10/08 03:06:58;;;;;;;10.48;2.10;;;9.60;99.90;;;;;;5032281;28;20134;-48
2022/10/08 03:09:31;;;;;;;9.93;1.95;;;9.60;99.90;;;;;;5033404;28;20037;-53
2022/10/08 03:11:58;;;;;;;12.52;2.80;;;9.60;99.90;;;;;;5033381;28;20029;-53
2022/10/08 03:14:25;;;;;;;8.63;2.38;;;9.60;99.90;;;;;;5033467;28;20021;-47
2022/10/08 03:16:52;;;;;;;8.30;2.70;;;9.50;99.90;;;;;;5033305;28;20116;-52
2022/10/08 03:19:18;;;;;;;12.13;2.42;;;9.50;99.90;;;;;;5033588;28;20076;-49
2022/10/08 03:21:47;;;;;;;9.00;1.95;;;9.60;99.90;;;;;;5033145;28;20061;-48
2022/10/08 03:24:14;;;;;;;7.60;1.87;;;9.50;99.90;;;;;;5032264;28;20076;-49
2022/10/08 03:26:40;;;;;;;6.95;2.30;;;9.50;99.90;;;;;;5032994;28;20060;-53
2022/10/08 03:29:06;;;;;;;8.15;2.25;;;9.40;99.90;;;;;;5032744;28;20065;-49
2022/10/08 03:31:32;;;;;;;5.78;2.10;;;9.30;99.90;;;;;;5032975;28;20033;-51
2022/10/08 03:33:57;;;;;;;4.78;1.90;;;9.30;99.90;;;;;;5032685;28;20025;-52
2022/10/08 03:36:24;;;;;;;9.73;2.28;;;9.20;99.90;;;;;;5033221;28;20026;-48
2022/10/08 03:38:50;;;;;;;5.88;2.00;;;9.20;99.90;;;;;;5032883;28;20029;-49
2022/10/08 03:41:16;;;;;;;6.47;2.05;;;9.20;99.90;;;;;;5033108;28;20064;-48
2022/10/08 03:43:42;;;;;;;7.85;2.67;;;9.10;99.90;;;;;;5032867;28;20025;-48
2022/10/08 03:46:11;;;;;;;6.05;1.90;;;9.10;99.90;;;;;;5032880;28;20029;-46
2022/10/08 03:48:37;;;;;;;10.02;2.30;;;9.10;99.90;;;;;;5033127;28;20041;-46
2022/10/08 03:51:22;;;;;;;5.97;2.30;;;9.10;99.90;;;;;;5032711;28;20567;-50
2022/10/08 03:53:48;;;;;;;11.95;3.08;;;9.10;99.90;;;;;;5032825;28;20077;-48
2022/10/08 03:56:20;;;;;;;9.68;2.10;;;9.10;99.90;;;;;;5032377;28;20029;-46
2022/10/08 03:58:50;;;;;;;8.88;2.55;;;9.10;99.90;;;;;;5032382;28;20116;-46
2022/10/08 04:01:16;;;;;;;8.15;2.92;;;9.10;99.90;;;;;;5032457;28;20400;-51
2022/10/08 04:03:44;;;;;;;7.97;2.45;;;9.10;99.90;;;;;;5032502;28;20060;-50
2022/10/08 04:06:10;;;;;;;11.25;2.45;;;9.10;99.90;;;;;;5032448;28;20131;-53
2022/10/08 04:08:36;;;;;;;11.82;3.03;;;9.10;99.90;;;;;;5032500;28;20091;-48
2022/10/08 04:11:04;;;;;;;11.63;2.50;;;9.10;99.90;;;;;;5032189;28;20033;-46
2022/10/08 04:13:30;;;;;;;11.93;2.58;;;9.10;99.90;;;;;;5032335;28;20484;-47
2022/10/08 04:16:02;;;;;;;7.88;2.17;;;9.10;99.90;;;;;;5032265;28;20491;-47
2022/10/08 04:18:28;;;;;;;8.10;2.47;;;9.10;99.90;;;;;;5032164;28;20022;-50
2022/10/08 04:20:58;;;;;;;8.10;2.35;;;9.00;99.90;;;;;;5031974;28;20033;-46
2022/10/08 04:23:24;;;;;;;11.18;2.40;;;9.00;99.90;;;;;;5031464;28;20485;-46
2022/10/08 04:25:51;;;;;;;8.40;2.55;;;9.00;99.90;;;;;;5031778;28;20116;-49
2022/10/08 04:28:18;;;;;;;8.38;2.85;;;9.00;99.90;;;;;;5031999;28;20045;-47
2022/10/08 04:31:03;;;;;;;8.00;2.35;;;8.90;99.90;;;;;;5031959;28;20029;-50
2022/10/08 04:33:31;;;;;;;9.60;2.33;;;8.90;99.90;;;;;;5031923;28;20026;-50
2022/10/08 04:35:57;;;;;;;9.95;2.45;;;8.90;99.90;;;;;;5018126;28;20100;-53
2022/10/08 04:38:22;;;;;;;9.43;1.95;;;8.80;99.90;;;;;;5032112;28;20108;-48
2022/10/08 04:40:59;;;;;;;11.43;2.75;;;8.90;99.90;;;;;;5031662;28;20055;-47
2022/10/08 04:43:24;;;;;;;9.27;3.13;;;8.90;99.90;;;;;;5031684;28;20108;-49
2022/10/08 04:45:50;;;;;;;9.30;2.20;;;8.90;99.90;;;;;;5031632;28;20101;-49
2022/10/08 04:48:16;;;;;;;4.70;1.80;;;8.80;99.90;;;;;;5031636;28;20116;-48
2022/10/08 04:50:41;;;;;;;8.73;2.97;;;8.80;99.90;;;;;;5031334;28;20099;-50
2022/10/08 04:53:07;;;;;;;4.60;1.63;;;8.70;99.90;;;;;;5031653;28;20029;-51
2022/10/08 04:55:32;;;;;;;10.32;2.05;;;8.70;99.90;;;;;;5031725;28;20028;-46
2022/10/08 04:57:59;;;;;;;8.27;2.42;;;8.60;99.90;;;;;;5031283;28;20481;-51
2022/10/08 05:00:25;;;;;;;8.77;2.95;;;8.60;99.90;;;;;;5031410;28;20385;-51
2022/10/08 05:02:50;;;;;;;8.55;2.70;;;8.50;99.90;;;;;;5031197;28;20022;-51
2022/10/08 05:05:16;;;;;;;6.40;2.40;;;8.50;99.90;;;;;;5031305;28;20081;-46
2022/10/08 05:07:42;;;;;;;13.30;2.65;;;8.40;99.90;;;;;;5031129;28;20044;-47
2022/10/08 05:10:08;;;;;;;8.73;2.28;;;8.30;99.90;;;;;;5031465;28;20021;-51
2022/10/08 05:12:33;;;;;;;8.90;2.30;;;8.40;99.90;;;;;;5031412;28;20026;-49
2022/10/08 05:14:59;;;;;;;5.18;2.20;;;8.30;99.90;;;;;;5031106;28;20025;-51
2022/10/08 05:17:25;;;;;;;5.93;2.42;;;8.30;99.90;;;;;;5031165;28;20106;-49
2022/10/08 05:19:51;;;;;;;7.68;3.03;;;8.30;99.90;;;;;;5031215;28;20064;-55
2022/10/08 05:22:17;;;;;;;7.00;2.42;;;8.20;99.90;;;;;;5030894;28;20029;-50
2022/10/08 05:24:43;;;;;;;10.00;2.60;;;8.30;99.90;;;;;;5030640;28;20025;-51
2022/10/08 05:27:08;;;;;;;8.90;3.15;;;8.30;99.90;;;;;;5031132;28;20033;-48
2022/10/08 05:29:34;;;;;;;11.45;3.20;;;8.30;99.90;;;;;;5031014;28;20021;-48
2022/10/08 05:31:59;;;;;;;12.05;3.88;;;8.30;99.90;;;;;;5030838;28;20025;-46
2022/10/08 05:34:25;;;;;;;10.48;3.65;;;8.40;99.90;;;;;;5031130;28;20028;-51
2022/10/08 05:36:51;;;;;;;11.50;4.25;;;8.40;99.90;;;;;;5031181;28;20033;-52
2022/10/08 05:39:17;;;;;;;11.95;3.15;;;8.40;99.90;;;;;;5030975;28;20534;-47
2022/10/08 05:41:43;;;;;;;15.48;2.88;;;8.50;99.90;;;;;;5030993;28;20022;-50
2022/10/08 05:44:10;;;;;;;23.52;3.42;;;8.50;99.90;;;;;;5030668;28;20021;-47
2022/10/08 05:46:37;;;;;;;14.68;3.05;;;8.50;99.90;;;;;;5031165;28;20038;-48
2022/10/08 05:49:05;;;;;;;35.42;5.43;;;8.40;99.90;;;;;;5034874;28;20096;-46
2022/10/08 05:51:31;;;;;;;12.07;2.85;;;8.40;99.90;;;;;;5034645;28;20032;-48
2022/10/08 05:53:58;;;;;;;10.73;3.10;;;8.30;99.90;;;;;;5034823;28;20029;-48
2022/10/08 05:56:26;;;;;;;9.75;2.90;;;8.40;99.90;;;;;;5034807;28;20147;-47
2022/10/08 05:58:52;;;;;;;12.75;2.70;;;8.40;99.90;;;;;;5033552;28;20025;-49
2022/10/08 06:01:23;;;;;;;6.65;2.40;;;8.30;99.90;;;;;;5034347;28;20413;-48
2022/10/08 06:03:54;;;;;;;14.02;2.15;;;8.20;99.90;;;;;;5034417;28;20049;-47
2022/10/08 06:06:21;;;;;;;4.70;2.50;;;8.20;99.90;;;;;;5032952;28;20025;-51
2022/10/08 06:08:47;;;;;;;9.88;2.95;;;8.20;99.90;;;;;;5033805;28;20036;-47
2022/10/08 06:11:12;;;;;;;7.93;3.03;;;8.30;99.90;;;;;;5031011;28;20435;-50
2022/10/08 06:13:38;;;;;;;7.90;2.67;;;8.20;99.90;;;;;;5033812;28;20088;-48
2022/10/08 06:16:07;;;;;;;8.32;2.70;;;8.20;99.90;;;;;;5033966;28;20033;-48
2022/10/08 06:18:37;;;;;;;8.02;3.00;;;8.20;99.90;;;;;;5033850;28;20021;-47
2022/10/08 06:21:05;;;;;;;13.25;3.10;;;8.30;99.90;;;;;;5033649;28;20017;-47
2022/10/08 06:23:31;;;;;;;6.88;2.72;;;8.30;99.90;;;;;;5032630;28;20041;-47
2022/10/08 06:26:04;;;;;;;8.70;2.85;;;8.30;99.90;;;;;;5034087;28;20065;-47
2022/10/08 06:28:31;;;;;;;7.50;3.00;;;8.30;99.90;;;;;;5033471;28;20029;-47
2022/10/08 06:30:58;;;;;;;20.75;2.80;;;8.20;99.90;;;;;;5034341;28;20036;-52
2022/10/08 06:33:23;;;;;;;5.70;3.22;;;8.20;99.90;;;;;;5034294;28;20029;-50
2022/10/08 06:35:49;;;;;;;49.15;3.90;;;8.20;99.90;;;;;;5033956;28;20350;-49
2022/10/08 06:38:15;;;;;;;16.08;2.92;;;8.20;99.90;;;;;;5034249;28;20460;-48
2022/10/08 06:40:40;;;;;;;5.63;2.97;;;8.20;99.90;;;;;;5033262;28;20025;-55
2022/10/08 06:43:11;;;;;;;7.25;2.78;;;8.30;99.90;;;;;;5033537;28;20028;-48
2022/10/08 06:45:40;;;;;;;6.95;2.95;;;8.30;99.90;;;;;;5033982;28;20125;-47
2022/10/08 06:48:06;;;;;;;14.63;3.17;;;8.40;99.90;;;;;;5033905;28;20044;-51
2022/10/08 06:50:33;;;;;;;10.55;3.40;;;8.50;99.90;;;;;;5033234;28;20464;-48
2022/10/08 06:52:59;;;;;;;31.10;3.70;;;8.60;99.90;;;;;;5033341;28;20527;-49
2022/10/08 06:55:24;;;;;;;11.27;2.92;;;8.70;99.90;;;;;;5033585;28;20104;-51
2022/10/08 06:57:50;;;;;;;11.48;2.60;;;8.70;99.90;;;;;;5033470;28;20464;-48
2022/10/08 07:00:16;;;;;;;8.73;3.03;;;8.70;99.90;;;;;;5033643;28;20022;-49
2022/10/08 07:02:43;;;;;;;11.50;2.58;;;8.90;99.90;;;;;;5033845;28;20033;-47
2022/10/08 07:05:08;;;;;;;5.50;2.63;;;9.00;99.90;;;;;;5032431;28;20045;-50
2022/10/08 07:07:34;;;;;;;6.05;2.33;;;9.10;99.90;;;;;;5033273;28;20049;-52
2022/10/08 07:09:59;;;;;;;9.50;1.70;;;9.10;99.90;;;;;;5032795;28;20392;-54
2022/10/08 07:12:25;;;;;;;4.07;1.83;;;9.10;99.90;;;;;;5032659;28;20128;-49
2022/10/08 07:14:51;;;;;;;5.05;2.10;;;9.20;99.90;;;;;;5031471;28;20068;-52
2022/10/08 07:17:16;;;;;;;3.03;1.63;;;9.20;99.90;;;;;;5030665;28;20377;-54
2022/10/08 07:19:42;;;;;;;8.63;1.80;;;9.30;99.90;;;;;;5029907;28;20033;-49
2022/10/08 07:22:07;;;;;;;5.10;1.52;;;9.40;99.90;;;;;;5031435;28;20108;-51
2022/10/08 07:24:33;;;;;;;4.43;1.63;;;9.50;99.90;;;;;;5030795;28;20021;-49
2022/10/08 07:26:59;;;;;;;2.58;1.58;;;9.60;99.90;;;;;;5029793;28;20035;-50
2022/10/08 07:29:25;;;;;;;7.40;2.10;;;9.50;99.90;;;;;;5028654;28;20096;-50
2022/10/08 07:31:50;;;;;;;6.50;1.92;;;9.60;99.90;;;;;;5030636;28;20110;-50
2022/10/08 07:34:16;;;;;;;7.68;2.10;;;9.70;99.90;;;;;;5031239;28;20032;-48
2022/10/08 07:36:42;;;;;;;3.78;2.35;;;9.80;99.90;;;;;;5031194;28;20079;-47
2022/10/08 07:39:20;;;;;;;5.25;2.60;;;9.90;99.90;;;;;;5030994;28;20688;-50
2022/10/08 07:41:47;;;;;;;5.25;2.50;;;10.00;99.90;;;;;;5032070;28;20030;-47
2022/10/08 07:44:14;;;;;;;4.70;2.53;;;10.10;99.90;;;;;;5032886;28;20036;-51
2022/10/08 07:46:45;;;;;;;3.83;2.53;;;10.20;99.90;;;;;;5032484;28;20505;-46
2022/10/08 07:49:11;;;;;;;5.20;2.90;;;10.20;99.90;;;;;;5032545;28;20025;-48
2022/10/08 07:51:37;;;;;;;6.20;2.70;;;10.20;99.90;;;;;;5032733;28;20021;-49
2022/10/08 07:54:05;;;;;;;6.70;3.03;;;10.10;99.90;;;;;;5032580;28;20104;-51
2022/10/08 07:56:32;;;;;;;7.78;2.88;;;10.00;99.90;;;;;;5032942;28;20048;-49
2022/10/08 07:58:58;;;;;;;7.20;3.42;;;10.00;99.90;;;;;;5032674;28;20032;-48
2022/10/08 08:01:27;;;;;;;6.30;2.70;;;10.00;99.90;;;;;;5032617;28;20029;-48
2022/10/08 08:03:54;;;;;;;5.53;2.40;;;10.10;99.90;;;;;;5032498;28;20042;-52
2022/10/08 08:06:21;;;;;;;8.18;2.88;;;10.40;99.90;;;;;;5032433;28;20033;-49
2022/10/08 08:08:47;;;;;;;4.80;1.95;;;11.00;99.90;;;;;;5031843;28;20037;-53
2022/10/08 08:11:15;;;;;;;5.57;2.40;;;12.00;99.90;;;;;;5032212;28;20029;-54
2022/10/08 08:13:42;;;;;;;6.67;2.17;;;13.00;99.90;;;;;;5032498;28;20037;-51
2022/10/08 08:16:16;;;;;;;7.78;2.28;;;14.30;99.90;;;;;;5032332;28;20282;-50
2022/10/08 08:18:44;;;;;;;4.60;1.83;;;15.40;99.90;;;;;;5032032;28;20025;-47
2022/10/08 08:21:12;;;;;;;8.57;1.80;;;16.50;99.90;;;;;;5032299;28;20030;-54
2022/10/08 08:23:40;;;;;;;7.28;1.55;;;17.70;99.90;;;;;;5031087;28;20037;-48
2022/10/08 08:26:17;;;;;;;7.13;1.95;;;17.70;99.90;;;;;;5032220;28;20096;-47
2022/10/08 08:28:43;;;;;;;6.25;1.70;;;17.80;99.90;;;;;;5031948;28;20086;-46
2022/10/08 08:31:23;;;;;;;8.13;2.08;;;18.60;99.90;;;;;;5032183;28;20026;-46
2022/10/08 08:33:51;;;;;;;4.50;1.63;;;19.10;99.90;;;;;;5031835;28;20084;-46
2022/10/08 08:36:19;;;;;;;6.70;1.70;;;19.90;99.90;;;;;;5032061;28;20093;-46
2022/10/08 08:38:45;;;;;;;4.18;1.83;;;19.90;99.90;;;;;;5031785;28;20031;-50
2022/10/08 08:41:32;;;;;;;9.75;1.50;;;20.20;99.90;;;;;;5031433;28;20036;-50
2022/10/08 08:44:07;;;;;;;6.45;1.65;;;20.50;99.90;;;;;;5031203;28;20036;-46
2022/10/08 08:46:39;;;;;;;5.28;1.50;;;21.20;99.90;;;;;;5031453;28;20048;-49
2022/10/08 08:49:17;;;;;;;6.05;1.65;;;22.00;98.90;;;;;;5031429;28;20112;-53
2022/10/08 08:51:43;;;;;;;6.20;1.88;;;21.90;96.80;;;;;;5031747;28;20040;-53
2022/10/08 08:54:09;;;;;;;5.93;1.92;;;22.00;96.00;;;;;;5031199;28;20029;-46
2022/10/08 08:56:34;;;;;;;4.93;1.80;;;22.10;95.50;;;;;;5031811;28;20025;-47
2022/10/08 08:59:13;;;;;;;5.53;1.63;;;22.70;95.80;;;;;;5031646;28;20163;-47
2022/10/08 09:01:43;;;;;;;5.43;1.60;;;23.20;94.80;;;;;;5031685;28;20476;-50
2022/10/08 09:04:23;;;;;;;5.97;1.80;;;23.70;94.50;;;;;;5031048;28;20279;-53
2022/10/08 09:06:51;;;;;;;8.60;2.08;;;24.00;92.20;;;;;;5031244;28;20041;-52
2022/10/08 09:09:30;;;;;;;5.55;1.80;;;24.30;91.60;;;;;;5031243;28;20026;-48
2022/10/08 09:11:57;;;;;;;8.25;2.00;;;24.80;89.70;;;;;;5031228;28;20021;-50
2022/10/08 09:14:32;;;;;;;5.72;1.80;;;25.20;87.20;;;;;;5031226;28;20033;-52
2022/10/08 09:17:03;;;;;;;7.47;1.60;;;26.00;85.50;;;;;;5031240;28;20026;-48
2022/10/08 09:19:29;;;;;;;7.72;2.08;;;26.50;84.30;;;;;;5031004;28;20026;-51
2022/10/08 09:21:55;;;;;;;5.43;1.83;;;26.50;82.00;;;;;;5030492;28;20068;-52
2022/10/08 09:24:21;;;;;;;5.78;1.85;;;27.30;79.40;;;;;;5031370;28;20053;-52
2022/10/08 09:26:47;;;;;;;6.47;1.60;;;27.70;76.50;;;;;;5031048;28;20452;-49
2022/10/08 09:29:33;;;;;;;7.18;1.60;;;28.70;76.80;;;;;;5031146;28;20022;-51
2022/10/08 09:31:58;;;;;;;8.05;1.85;;;28.60;69.10;;;;;;5031228;28;20026;-53
2022/10/08 09:34:24;;;;;;;8.07;1.63;;;28.50;67.50;;;;;;5030961;28;20030;-49
2022/10/08 09:37:00;;;;;;;4.88;1.33;;;28.20;66.80;;;;;;5031098;28;20060;-51
2022/10/08 09:39:31;;;;;;;5.85;1.70;;;28.10;68.10;;;;;;5018204;28;20060;-50
2022/10/08 09:42:05;;;;;;;8.95;1.77;;;27.60;66.40;;;;;;5030465;28;20013;-52
2022/10/08 09:44:44;;;;;;;4.60;1.60;;;28.10;68.10;;;;;;5024488;28;20100;-53
2022/10/08 09:47:15;;;;;;;8.57;1.90;;;28.70;65.90;;;;;;5030862;28;20037;-49
2022/10/08 09:49:42;;;;;;;9.25;1.92;;;29.10;66.70;;;;;;5031069;28;20025;-50
2022/10/08 09:52:25;;;;;;;7.82;1.70;;;30.00;64.60;;;;;;5031028;28;20042;-51
2022/10/08 09:55:17;;;;;;;8.50;2.50;;;30.60;63.30;;;;;;5029781;28;20372;-49
2022/10/08 09:57:45;;;;;;;6.45;2.53;;;30.40;59.90;;;;;;5030632;28;20026;-48
2022/10/08 10:00:23;;;;;;;;;;;30.30;59.20;;;;;;5031270;28;20033;-51
2022/10/08 10:02:52;;;;;;;7.80;2.13;;;30.00;57.90;;;;;;5030691;28;19959;-48
2022/10/08 10:05:24;;;;;;;8.38;2.35;;;30.00;59.50;;;;;;5030537;28;20088;-48
2022/10/08 10:07:51;;;;;;;7.35;2.05;;;30.70;58.10;;;;;;5029176;28;20057;-49
2022/10/08 10:10:20;;;;;;;6.07;1.67;;;30.50;56.20;;;;;;5030729;28;20030;-52
2022/10/08 10:12:53;;;;;;;6.97;2.30;;;30.40;56.00;;;;;;5030451;28;20037;-51
2022/10/08 10:15:37;;;;;;;9.60;2.63;;;30.80;57.90;;;;;;5030457;28;20419;-51
2022/10/08 10:18:19;;;;;;;7.38;2.30;;;30.80;55.80;;;;;;5030306;28;20029;-48
2022/10/08 10:20:57;;;;;;;6.70;1.85;;;30.30;59.20;;;;;;5030410;28;20098;-49
2022/10/08 10:23:35;;;;;;;7.60;2.33;;;30.30;57.30;;;;;;5030412;28;20032;-49
2022/10/08 10:26:11;;;;;;;9.15;2.40;;;30.50;58.30;;;;;;5030616;28;20108;-48
2022/10/08 10:28:40;;;;;;;7.40;2.28;;;30.30;56.10;;;;;;5029652;28;20037;-49
2022/10/08 10:31:08;;;;;;;5.85;2.03;;;30.30;54.90;;;;;;5030346;28;20045;-50
2022/10/08 10:33:47;;;;;;;8.88;2.10;;;29.80;56.50;;;;;;5033060;28;20108;-49
2022/10/08 10:36:15;;;;;;;8.52;1.83;;;29.90;60.00;;;;;;5034011;28;20022;-49
2022/10/08 10:38:51;;;;;;;4.90;1.75;;;29.80;55.50;;;;;;5034120;28;20075;-50
2022/10/08 10:41:31;;;;;;;6.75;1.65;;;29.70;56.20;;;;;;5034187;28;20049;-49
2022/10/08 10:44:03;;;;;;;5.63;1.15;;;29.90;59.60;;;;;;5033811;28;20069;-50
2022/10/08 10:46:43;;;;;;;6.88;1.60;;;30.60;55.90;;;;;;5033935;28;20025;-49
2022/10/08 10:49:33;;;;;;;6.22;1.52;;;30.10;55.10;;;;;;5033665;28;20068;-49
2022/10/08 10:52:02;;;;;;;6.28;1.60;;;28.60;58.40;;;;;;5033837;28;20065;-48
2022/10/08 10:55:05;;;;;;;7.20;1.50;;;28.50;58.00;;;;;;5033675;28;20099;-48
2022/10/08 10:57:43;;;;;;;6.75;1.55;;;28.00;58.00;;;;;;5033485;28;20029;-48
2022/10/08 11:00:12;;;;;;;4.82;1.55;;;27.80;61.00;;;;;;5033745;28;20056;-48
2022/10/08 11:02:57;;;;;;;;;;;27.60;61.20;;;;;;5033014;28;20021;-49
2022/10/08 11:05:26;;;;;;;4.65;1.40;;;27.40;57.30;;;;;;5032373;28;19921;-48
2022/10/08 11:08:00;;;;;;;5.00;1.23;;;26.80;61.30;;;;;;5032461;28;20462;-48
2022/10/08 11:10:42;;;;;;;7.55;1.95;;;26.20;62.40;;;;;;5033177;28;20022;-47
2022/10/08 11:13:30;;;;;;;7.80;1.95;;;26.00;65.90;;;;;;5032049;28;20029;-49
2022/10/08 11:16:27;;;;;;;6.43;1.85;;;25.90;63.00;;;;;;5032535;28;20036;-49
2022/10/08 11:18:58;;;;;;;8.38;1.90;;;25.30;61.90;;;;;;5030061;28;20096;-49
2022/10/08 11:21:57;;;;;;;8.70;1.73;;;24.90;66.80;;;;;;5032934;28;20096;-48
2022/10/08 11:24:58;;;;;;;6.25;1.67;;;24.70;67.10;;;;;;5031465;28;20022;-51
2022/10/08 11:27:47;;;;;;;6.72;1.60;;;24.00;66.00;;;;;;5031192;28;20112;-55
2022/10/08 11:30:41;;;;;;;5.82;1.95;;;23.50;67.00;;;;;;5032982;28;20029;-50
2022/10/08 11:33:12;;;;;;;6.78;1.60;;;23.40;70.20;;;;;;5033372;28;20021;-50
2022/10/08 11:35:46;;;;;;;6.53;1.60;;;23.30;68.20;;;;;;5033085;28;20034;-50
2022/10/08 11:39:04;;;;;;;7.43;1.80;;;23.30;65.20;;;;;;5032583;28;20049;-51
2022/10/08 11:41:41;;;;;;;4.82;1.67;;;23.40;67.90;;;;;;5021397;28;20427;-50
2022/10/08 11:44:09;;;;;;;6.70;1.77;;;23.10;68.40;;;;;;5031219;28;20107;-50
2022/10/08 11:46:35;;;;;;;6.47;1.40;;;23.40;69.80;;;;;;5032766;28;20029;-55
2022/10/08 11:49:05;;;;;;;11.60;1.63;;;23.30;64.20;;;;;;5032609;28;20042;-50
2022/10/08 11:51:36;;;;;;;6.53;1.10;;;23.70;68.40;;;;;;5032177;28;20021;-48
2022/10/08 11:54:11;;;;;;;5.93;1.25;;;24.60;69.30;;;;;;5032285;28;20033;-49
2022/10/08 11:56:50;;;;;;;7.28;1.48;;;25.30;61.90;;;;;;5032562;28;20017;-47
2022/10/08 11:59:38;;;;;;;6.35;1.30;;;25.90;60.50;;;;;;5031747;28;20736;-49
2022/10/08 12:02:42;;;;;;;4.82;1.05;;;25.80;63.40;;;;;;5032405;28;20036;-49
2022/10/08 12:05:22;;;;;;;8.20;1.70;;;26.40;61.10;;;;;;5009772;28;20049;-51
2022/10/08 12:07:57;;;;;;;4.65;1.30;;;27.10;57.50;;;;;;5029564;28;20045;-47
2022/10/08 12:10:39;;;;;;;5.55;1.20;;;27.60;58.30;;;;;;5021979;28;20433;-47
2022/10/08 12:13:08;;;;;;;4.53;1.23;;;27.70;56.10;;;;;;5032574;28;20113;-49
2022/10/08 12:15:37;;;;;;;4.40;1.17;;;27.50;58.80;;;;;;5032216;28;20028;-47
2022/10/08 12:18:09;;;;;;;5.70;1.33;;;27.40;58.10;;;;;;5031603;28;20041;-50
2022/10/08 12:20:40;;;;;;;6.15;1.10;;;27.60;56.30;;;;;;5031482;28;20025;-47
2022/10/08 12:23:20;;;;;;;7.72;1.50;;;27.10;55.60;;;;;;5032081;28;20029;-47
2022/10/08 12:25:47;;;;;;;6.07;1.30;;;25.70;59.60;;;;;;5031704;28;20022;-48
2022/10/08 12:28:19;;;;;;;5.05;1.45;;;25.10;62.50;;;;;;5031960;28;20038;-46
2022/10/08 12:30:47;;;;;;;6.13;1.40;;;24.40;59.80;;;;;;5031923;28;20029;-46
2022/10/08 12:33:13;;;;;;;6.53;1.08;;;23.80;62.40;;;;;;5032228;28;20092;-47
2022/10/08 12:36:18;;;;;;;5.50;1.10;;;22.70;66.60;;;;;;5031934;28;20064;-48
2022/10/08 12:38:53;;;;;;;7.38;1.15;;;22.10;67.60;;;;;;5031164;28;20056;-49
2022/10/08 12:41:37;;;;;;;5.05;1.02;;;21.40;65.10;;;;;;5028062;28;20036;-48
2022/10/08 12:44:36;;;;;;;6.22;0.90;;;21.40;71.40;;;;;;5030768;28;20044;-47
2022/10/08 12:47:20;;;;;;;3.63;1.10;;;20.80;69.60;;;;;;5030514;28;20503;-50
2022/10/08 12:50:00;;;;;;;4.20;1.08;;;20.70;73.70;;;;;;5025625;28;20029;-48
2022/10/08 12:52:33;;;;;;;8.40;1.35;;;20.40;70.30;;;;;;5030288;28;20037;-49
2022/10/08 12:55:00;;;;;;;3.67;1.40;;;19.90;69.60;;;;;;5029567;28;20057;-50
2022/10/08 12:57:29;;;;;;;4.15;1.08;;;19.60;73.00;;;;;;5030370;28;20469;-49
2022/10/08 12:59:56;;;;;;;5.10;1.10;;;19.70;70.90;;;;;;5030122;28;20021;-47
2022/10/08 13:02:36;;;;;;;6.93;1.20;;;20.00;69.80;;;;;;5029625;28;20378;-48
2022/10/08 13:05:03;;;;;;;6.63;1.15;;;20.30;71.80;;;;;;5029318;28;20045;-47
2022/10/08 13:07:33;;;;;;;4.47;1.00;;;20.50;70.30;;;;;;5029653;28;20033;-50
2022/10/08 13:10:15;;;;;;;3.65;0.98;;;20.40;69.00;;;;;;5028976;28;20014;-49
2022/10/08 13:12:42;;;;;;;2.35;0.90;;;20.30;71.20;;;;;;5028972;28;20083;-49